Terminal Aerodrome Forecast
Issued by NWS

Home | Current Version | Previous Version | Graphics & Text | Print | Product List | Glossary On
Versions: 1 2 3 4 5 6 7 8 9 10 11 12 13 14 15 16 17 18 19
000
FTUS43 KUNR 241125
TAFGCC
TAF
KGCC 241125Z 2412/2512 31010KT P6SM SCT004 SCT120
     FM241600 33009KT P6SM SCT020 BKN100
     FM250200 05012KT P6SM -RA OVC015
     FM250900 02018KT 1SM -SN BR OVC004=

USA.gov is the U.S. government's official web portal to all federal, state and local government web resources and services.